Time;durP1;ratioP1;P1;durP2;ratioP2;P2;SDS_P1;SDS_P2;PMS_P1;PMS_P2;Temp;Humidity;BMP_temperature;BMP_pressure;BME280_temperature;BME280_humidity;BME280_pressure;Samples;Min_cycle;Max_cycle;Signal;HPM_P1;HPM_P2
2021/01/16 00:01:38;;;;;;;3.55;2.13;;;;;;;;;;5050877;28;20095;-54
2021/01/16 00:04:05;;;;;;;4.60;2.20;;;;;;;;;;5050583;28;20049;-53
2021/01/16 00:06:31;;;;;;;4.82;2.03;;;;;;;;;;5050651;28;20449;-53
2021/01/16 00:08:57;;;;;;;4.18;2.08;;;;;;;;;;5033966;28;20071;-53
2021/01/16 00:11:23;;;;;;;3.60;2.20;;;;;;;;;;5043888;28;20071;-55
2021/01/16 00:13:49;;;;;;;3.38;2.50;;;;;;;;;;5050821;28;20056;-55
2021/01/16 00:16:15;;;;;;;4.28;2.50;;;;;;;;;;5050684;28;20021;-56
2021/01/16 00:18:41;;;;;;;3.92;2.42;;;;;;;;;;5043447;28;20080;-56
2021/01/16 00:21:07;;;;;;;5.15;2.47;;;;;;;;;;5032648;28;20030;-51
2021/01/16 00:23:33;;;;;;;5.95;2.30;;;;;;;;;;5050617;28;20033;-53
2021/01/16 00:25:59;;;;;;;4.97;2.28;;;;;;;;;;5049760;28;20029;-54
2021/01/16 00:28:28;;;;;;;4.40;2.78;;;;;;;;;;5050241;28;20025;-52
2021/01/16 00:30:54;;;;;;;5.10;2.85;;;;;;;;;;5050669;28;20039;-51
2021/01/16 00:33:21;;;;;;;3.80;2.55;;;;;;;;;;5052446;28;20037;-56
2021/01/16 00:35:47;;;;;;;3.90;2.72;;;;;;;;;;5049409;28;20029;-54
2021/01/16 00:38:13;;;;;;;5.82;2.63;;;;;;;;;;5050761;28;20162;-53
2021/01/16 00:40:40;;;;;;;3.00;2.25;;;;;;;;;;5050386;28;20033;-55
2021/01/16 00:43:11;;;;;;;4.50;2.85;;;;;;;;;;5050448;28;20043;-51
2021/01/16 00:45:37;;;;;;;3.92;2.53;;;;;;;;;;5032911;28;20105;-52
2021/01/16 00:48:11;;;;;;;5.32;2.75;;;;;;;;;;5049455;28;20120;-53
2021/01/16 00:50:37;;;;;;;4.47;2.35;;;;;;;;;;5049874;28;20025;-49
2021/01/16 00:53:04;;;;;;;4.55;2.78;;;;;;;;;;5050258;28;20507;-51
2021/01/16 00:55:30;;;;;;;3.85;2.78;;;;;;;;;;5050270;28;20028;-52
2021/01/16 00:57:56;;;;;;;5.57;2.45;;;;;;;;;;5048390;28;20422;-53
2021/01/16 01:00:23;;;;;;;4.38;2.47;;;;;;;;;;5049508;28;20040;-54
2021/01/16 01:02:49;;;;;;;4.38;2.88;;;;;;;;;;5049811;28;20028;-54
2021/01/16 01:05:16;;;;;;;3.47;2.42;;;;;;;;;;5048874;28;20033;-53
2021/01/16 01:07:45;;;;;;;5.68;2.70;;;;;;;;;;5050126;28;20437;-54
2021/01/16 01:10:11;;;;;;;4.68;2.83;;;;;;;;;;5049835;28;20032;-55
2021/01/16 01:12:40;;;;;;;4.47;2.70;;;;;;;;;;5045316;28;20025;-54
2021/01/16 01:15:09;;;;;;;4.85;2.75;;;;;;;;;;5049424;28;20033;-55
2021/01/16 01:17:35;;;;;;;4.20;2.25;;;;;;;;;;5029954;28;20029;-53
2021/01/16 01:20:02;;;;;;;4.10;2.30;;;;;;;;;;5029563;28;20033;-49
2021/01/16 01:22:33;;;;;;;3.67;2.65;;;;;;;;;;5029416;28;20034;-54
2021/01/16 01:24:59;;;;;;;5.70;2.72;;;;;;;;;;5037217;28;20357;-50
2021/01/16 01:27:25;;;;;;;4.85;2.55;;;;;;;;;;5049111;28;20021;-52
2021/01/16 01:29:51;;;;;;;6.10;3.33;;;;;;;;;;5049775;28;20025;-52
2021/01/16 01:32:17;;;;;;;6.85;2.42;;;;;;;;;;5048478;28;20033;-53
2021/01/16 01:34:43;;;;;;;4.38;2.70;;;;;;;;;;5062553;28;20032;-55
2021/01/16 01:37:09;;;;;;;5.40;2.67;;;;;;;;;;5058321;28;20025;-54
2021/01/16 01:39:35;;;;;;;4.15;2.90;;;;;;;;;;5032455;28;20029;-51
2021/01/16 01:42:01;;;;;;;3.78;2.08;;;;;;;;;;5029145;28;20056;-54
2021/01/16 01:44:27;;;;;;;3.92;2.72;;;;;;;;;;5029723;28;20036;-55
2021/01/16 01:46:53;;;;;;;4.10;2.42;;;;;;;;;;5042603;28;20029;-53
2021/01/16 01:49:19;;;;;;;5.85;2.83;;;;;;;;;;5048648;28;20549;-54
2021/01/16 01:51:45;;;;;;;7.85;3.28;;;;;;;;;;5048941;28;20092;-55
2021/01/16 01:54:11;;;;;;;3.13;2.33;;;;;;;;;;5049453;28;20527;-56
2021/01/16 01:56:38;;;;;;;5.88;2.90;;;;;;;;;;5048610;28;20036;-56
2021/01/16 01:59:06;;;;;;;4.45;2.85;;;;;;;;;;5048858;28;20488;-55
2021/01/16 02:01:38;;;;;;;3.53;2.63;;;;;;;;;;5048761;28;20028;-56
2021/01/16 02:04:04;;;;;;;4.35;2.30;;;;;;;;;;5034444;28;20060;-52
2021/01/16 02:06:30;;;;;;;5.43;3.00;;;;;;;;;;5048904;28;20029;-55
2021/01/16 02:08:56;;;;;;;4.60;3.00;;;;;;;;;;5047612;28;20025;-54
2021/01/16 02:11:23;;;;;;;7.22;2.75;;;;;;;;;;5048596;28;20106;-51
2021/01/16 02:13:49;;;;;;;5.40;2.97;;;;;;;;;;5048173;28;20478;-52
2021/01/16 02:16:27;;;;;;;5.43;3.13;;;;;;;;;;5048694;28;20044;-56
2021/01/16 02:18:55;;;;;;;5.55;3.03;;;;;;;;;;5047400;28;20132;-54
2021/01/16 02:21:22;;;;;;;5.25;3.20;;;;;;;;;;5048569;28;20063;-54
2021/01/16 02:24:06;;;;;;;5.10;3.13;;;;;;;;;;5048152;28;20087;-54
2021/01/16 02:26:47;;;;;;;4.05;2.80;;;;;;;;;;5048388;28;20027;-54
2021/01/16 02:29:14;;;;;;;5.55;3.13;;;;;;;;;;5032544;28;20017;-54
2021/01/16 02:31:44;;;;;;;5.00;3.65;;;;;;;;;;5048759;28;20052;-55
2021/01/16 02:34:13;;;;;;;6.30;3.55;;;;;;;;;;5047413;28;20571;-53
2021/01/16 02:36:46;;;;;;;5.15;2.92;;;;;;;;;;5048316;28;20025;-55
2021/01/16 02:39:16;;;;;;;4.65;2.88;;;;;;;;;;5035719;28;20035;-51
2021/01/16 02:41:58;;;;;;;5.78;3.25;;;;;;;;;;5048166;28;20060;-55
2021/01/16 02:44:47;;;;;;;5.30;2.85;;;;;;;;;;5048348;28;20137;-54
2021/01/16 02:47:16;;;;;;;5.93;3.40;;;;;;;;;;5047631;28;20543;-51
2021/01/16 02:49:51;;;;;;;6.55;3.30;;;;;;;;;;5048039;28;20535;-52
2021/01/16 02:52:19;;;;;;;5.88;3.38;;;;;;;;;;5047394;28;20044;-54
2021/01/16 02:54:45;;;;;;;8.82;3.30;;;;;;;;;;5048065;28;20032;-52
2021/01/16 02:57:11;;;;;;;5.30;3.53;;;;;;;;;;5047688;28;20029;-56
2021/01/16 02:59:38;;;;;;;5.97;3.60;;;;;;;;;;5047570;28;20095;-53
2021/01/16 03:02:05;;;;;;;6.28;3.92;;;;;;;;;;5046993;28;20041;-55
2021/01/16 03:04:31;;;;;;;4.70;3.10;;;;;;;;;;5047147;28;20064;-52
2021/01/16 03:06:57;;;;;;;6.05;3.22;;;;;;;;;;5048000;28;20021;-53
2021/01/16 03:09:23;;;;;;;6.05;3.17;;;;;;;;;;5032626;28;20026;-56
2021/01/16 03:11:50;;;;;;;5.40;3.60;;;;;;;;;;5042128;28;20559;-53
2021/01/16 03:14:18;;;;;;;4.50;3.08;;;;;;;;;;5048025;28;20029;-51
2021/01/16 03:17:10;;;;;;;6.10;3.40;;;;;;;;;;5047757;28;20082;-52
2021/01/16 03:19:38;;;;;;;5.32;2.97;;;;;;;;;;5044473;28;20045;-53
2021/01/16 03:22:17;;;;;;;5.32;3.38;;;;;;;;;;5046424;28;20033;-54
2021/01/16 03:24:43;;;;;;;6.03;3.15;;;;;;;;;;5047273;28;20032;-52
2021/01/16 03:27:09;;;;;;;6.78;3.33;;;;;;;;;;5047653;28;20029;-54
2021/01/16 03:29:35;;;;;;;5.22;3.28;;;;;;;;;;5047620;28;20498;-51
2021/01/16 03:32:01;;;;;;;5.50;3.40;;;;;;;;;;5047157;28;20025;-51
2021/01/16 03:34:26;;;;;;;5.88;3.30;;;;;;;;;;5058735;28;20032;-50
2021/01/16 03:36:52;;;;;;;7.40;3.67;;;;;;;;;;5053622;28;20115;-56
2021/01/16 03:39:18;;;;;;;8.15;3.63;;;;;;;;;;5044777;28;20317;-56
2021/01/16 03:41:44;;;;;;;7.90;3.95;;;;;;;;;;5047371;28;20047;-53
2021/01/16 03:44:10;;;;;;;5.32;3.63;;;;;;;;;;5047266;28;20021;-51
2021/01/16 03:46:36;;;;;;;6.45;3.80;;;;;;;;;;5047062;28;20029;-50
2021/01/16 03:49:02;;;;;;;5.43;3.53;;;;;;;;;;5046690;28;20033;-53
2021/01/16 03:51:28;;;;;;;7.65;4.20;;;;;;;;;;5046843;28;20183;-53
2021/01/16 03:53:54;;;;;;;6.28;4.15;;;;;;;;;;5047276;28;20444;-51
2021/01/16 03:56:20;;;;;;;6.13;3.85;;;;;;;;;;5047500;28;20037;-53
2021/01/16 03:58:46;;;;;;;10.93;4.40;;;;;;;;;;5047363;28;20465;-53
2021/01/16 04:01:12;;;;;;;7.57;4.25;;;;;;;;;;5046478;28;20036;-55
2021/01/16 04:03:38;;;;;;;7.80;4.30;;;;;;;;;;5046799;28;20029;-53
2021/01/16 04:06:04;;;;;;;9.82;4.20;;;;;;;;;;5046731;28;20033;-52
2021/01/16 04:08:30;;;;;;;7.60;4.55;;;;;;;;;;5039891;28;20034;-53
2021/01/16 04:10:56;;;;;;;10.30;5.10;;;;;;;;;;5047428;28;20024;-51
2021/01/16 04:13:22;;;;;;;7.30;4.65;;;;;;;;;;5047029;28;20033;-56
2021/01/16 04:15:48;;;;;;;11.10;4.88;;;;;;;;;;5046610;28;20028;-55
2021/01/16 04:18:14;;;;;;;9.63;4.20;;;;;;;;;;5046746;28;20090;-52
2021/01/16 04:20:40;;;;;;;7.40;4.20;;;;;;;;;;5045748;28;20052;-54
2021/01/16 04:23:06;;;;;;;7.78;4.30;;;;;;;;;;5047016;28;20033;-49
2021/01/16 04:25:32;;;;;;;7.22;4.43;;;;;;;;;;5047284;28;20029;-50
2021/01/16 04:27:57;;;;;;;6.20;3.67;;;;;;;;;;5046199;28;20025;-52
2021/01/16 04:30:24;;;;;;;8.88;4.95;;;;;;;;;;5046589;28;20087;-52
2021/01/16 04:32:52;;;;;;;10.73;4.43;;;;;;;;;;5048885;28;20043;-54
2021/01/16 04:35:18;;;;;;;8.98;4.72;;;;;;;;;;5055617;28;20605;-56
2021/01/16 04:37:45;;;;;;;7.55;4.25;;;;;;;;;;5049285;28;20099;-52
2021/01/16 04:40:11;;;;;;;7.78;4.20;;;;;;;;;;5050256;28;20043;-52
2021/01/16 04:42:44;;;;;;;8.30;4.30;;;;;;;;;;5050355;28;20495;-56
2021/01/16 04:45:10;;;;;;;;;;;;;;;;;;5050530;28;20028;-55
2021/01/16 04:47:37;;;;;;;8.27;4.22;;;;;;;;;;5050476;28;20003;-55
2021/01/16 04:50:04;;;;;;;8.48;5.28;;;;;;;;;;5049827;28;20147;-51
2021/01/16 04:52:33;;;;;;;10.15;5.20;;;;;;;;;;5050182;28;20085;-56
2021/01/16 04:55:00;;;;;;;13.15;5.05;;;;;;;;;;5050071;28;20033;-56
2021/01/16 04:57:30;;;;;;;10.52;4.30;;;;;;;;;;5049678;28;20594;-52
2021/01/16 04:59:57;;;;;;;8.15;4.05;;;;;;;;;;5050395;28;20033;-56
2021/01/16 05:02:23;;;;;;;7.80;4.78;;;;;;;;;;5050091;28;20788;-54
2021/01/16 05:04:50;;;;;;;7.88;4.57;;;;;;;;;;5049185;28;20063;-53
2021/01/16 05:07:18;;;;;;;6.68;4.05;;;;;;;;;;5049592;28;20029;-53
2021/01/16 05:09:45;;;;;;;8.75;4.30;;;;;;;;;;5034460;28;20528;-53
2021/01/16 05:12:37;;;;;;;9.93;4.53;;;;;;;;;;5049901;28;20029;-54
2021/01/16 05:15:07;;;;;;;10.65;4.60;;;;;;;;;;5047796;28;20033;-54
2021/01/16 05:17:36;;;;;;;6.75;4.15;;;;;;;;;;5049950;28;20124;-53
2021/01/16 05:20:03;;;;;;;9.82;4.80;;;;;;;;;;5048959;28;20033;-52
2021/01/16 05:22:29;;;;;;;8.93;3.95;;;;;;;;;;5049283;28;20037;-52
2021/01/16 05:25:00;;;;;;;7.57;4.10;;;;;;;;;;5049809;28;20380;-51
2021/01/16 05:27:30;;;;;;;8.70;4.97;;;;;;;;;;5049571;28;20379;-53
2021/01/16 05:30:00;;;;;;;8.25;4.30;;;;;;;;;;5049429;28;20078;-51
2021/01/16 05:32:26;;;;;;;10.75;5.03;;;;;;;;;;5049252;28;20029;-54
2021/01/16 05:34:52;;;;;;;7.70;3.97;;;;;;;;;;5059051;28;20633;-54
2021/01/16 05:37:19;;;;;;;9.38;4.70;;;;;;;;;;5049259;28;20029;-54
2021/01/16 05:39:45;;;;;;;8.80;4.70;;;;;;;;;;5031485;28;20036;-49
2021/01/16 05:42:11;;;;;;;10.18;4.78;;;;;;;;;;5036835;28;20033;-55
2021/01/16 05:44:39;;;;;;;10.48;4.90;;;;;;;;;;5048376;28;20056;-52
2021/01/16 05:47:06;;;;;;;8.30;4.40;;;;;;;;;;5048701;28;20111;-51
2021/01/16 05:49:33;;;;;;;8.48;4.80;;;;;;;;;;5049112;28;20101;-55
2021/01/16 05:51:59;;;;;;;8.57;4.85;;;;;;;;;;5049123;28;20029;-54
2021/01/16 05:54:28;;;;;;;8.20;5.10;;;;;;;;;;5049234;28;20036;-51
2021/01/16 05:56:54;;;;;;;9.25;4.93;;;;;;;;;;5048585;28;20024;-52
2021/01/16 05:59:21;;;;;;;7.88;4.07;;;;;;;;;;5048274;28;20090;-53
2021/01/16 06:01:51;;;;;;;8.57;5.63;;;;;;;;;;5049187;28;20033;-52
2021/01/16 06:04:21;;;;;;;10.10;5.10;;;;;;;;;;5048627;28;20068;-51
2021/01/16 06:06:47;;;;;;;8.20;4.85;;;;;;;;;;5048857;28;20027;-53
2021/01/16 06:09:20;;;;;;;8.40;4.90;;;;;;;;;;5047765;28;20922;-52
2021/01/16 06:11:48;;;;;;;8.52;4.68;;;;;;;;;;5048862;28;20037;-51
2021/01/16 06:14:14;;;;;;;10.52;4.80;;;;;;;;;;5048482;28;20055;-53
2021/01/16 06:16:54;;;;;;;13.15;5.57;;;;;;;;;;5048819;28;20025;-52
2021/01/16 06:19:21;;;;;;;7.90;4.93;;;;;;;;;;5047619;28;20048;-51
2021/01/16 06:21:48;;;;;;;9.32;4.60;;;;;;;;;;5047940;28;20104;-56
2021/01/16 06:24:15;;;;;;;9.73;5.00;;;;;;;;;;5048571;28;20043;-54
2021/01/16 06:26:42;;;;;;;9.80;5.47;;;;;;;;;;5047963;28;20040;-51
2021/01/16 06:29:14;;;;;;;10.35;5.68;;;;;;;;;;5047907;28;20024;-53
2021/01/16 06:31:49;;;;;;;10.75;5.32;;;;;;;;;;5048386;28;20028;-51
2021/01/16 06:34:27;;;;;;;8.93;4.97;;;;;;;;;;5058563;28;20035;-53
2021/01/16 06:36:54;;;;;;;10.85;5.13;;;;;;;;;;5066804;28;20028;-56
2021/01/16 06:39:23;;;;;;;8.35;5.20;;;;;;;;;;5033518;28;20088;-53
2021/01/16 06:41:53;;;;;;;9.30;5.65;;;;;;;;;;5028060;28;20041;-50
2021/01/16 06:44:19;;;;;;;10.73;5.22;;;;;;;;;;5041972;28;20043;-52
2021/01/16 06:46:46;;;;;;;8.52;5.20;;;;;;;;;;5047988;28;20124;-52
2021/01/16 06:49:19;;;;;;;12.70;4.90;;;;;;;;;;5047738;28;20055;-52
2021/01/16 06:51:45;;;;;;;10.15;4.97;;;;;;;;;;5046944;28;20136;-50
2021/01/16 06:54:11;;;;;;;9.93;5.32;;;;;;;;;;5048073;28;20116;-52
2021/01/16 06:56:39;;;;;;;10.10;5.65;;;;;;;;;;5046961;28;20826;-51
2021/01/16 06:59:12;;;;;;;7.75;4.88;;;;;;;;;;5047545;28;20856;-50
2021/01/16 07:01:38;;;;;;;8.75;5.18;;;;;;;;;;5047728;28;20472;-51
2021/01/16 07:04:04;;;;;;;11.63;5.50;;;;;;;;;;5047056;28;20537;-52
2021/01/16 07:06:46;;;;;;;9.90;5.22;;;;;;;;;;5043773;28;20033;-49
2021/01/16 07:09:13;;;;;;;9.10;5.30;;;;;;;;;;5044186;28;20468;-53
2021/01/16 07:11:43;;;;;;;16.90;6.97;;;;;;;;;;5043479;28;20028;-51
2021/01/16 07:14:10;;;;;;;12.60;5.78;;;;;;;;;;5027582;28;20037;-50
2021/01/16 07:16:36;;;;;;;12.30;6.05;;;;;;;;;;5044909;28;20040;-56
2021/01/16 07:19:03;;;;;;;11.85;6.75;;;;;;;;;;5047219;28;20044;-49
2021/01/16 07:21:29;;;;;;;11.50;5.85;;;;;;;;;;5047893;28;20044;-52
2021/01/16 07:23:55;;;;;;;9.45;5.47;;;;;;;;;;5029857;28;20037;-55
2021/01/16 07:26:23;;;;;;;11.90;6.47;;;;;;;;;;5036307;28;20025;-54
2021/01/16 07:28:55;;;;;;;12.15;6.80;;;;;;;;;;5041895;28;20029;-54
2021/01/16 07:31:21;;;;;;;12.63;7.05;;;;;;;;;;5047796;28;20024;-54
2021/01/16 07:33:49;;;;;;;11.85;6.22;;;;;;;;;;5051698;28;20085;-54
2021/01/16 07:36:16;;;;;;;11.23;6.32;;;;;;;;;;5062960;28;20473;-55
2021/01/16 07:38:42;;;;;;;13.05;7.75;;;;;;;;;;5048119;28;20036;-51
2021/01/16 07:41:09;;;;;;;11.77;6.38;;;;;;;;;;5035778;28;20491;-53
2021/01/16 07:43:57;;;;;;;15.95;7.63;;;;;;;;;;5028543;28;20084;-53
2021/01/16 07:46:28;;;;;;;13.55;7.38;;;;;;;;;;5047197;28;20033;-53
2021/01/16 07:48:56;;;;;;;11.52;6.35;;;;;;;;;;5032067;28;20026;-55
2021/01/16 07:51:26;;;;;;;11.38;6.88;;;;;;;;;;5042836;28;20032;-53
2021/01/16 07:53:55;;;;;;;14.82;10.23;;;;;;;;;;5046021;28;20033;-57
2021/01/16 07:56:22;;;;;;;11.23;6.88;;;;;;;;;;5028555;28;20086;-50
2021/01/16 07:58:55;;;;;;;13.38;7.30;;;;;;;;;;5047715;28;20125;-56
2021/01/16 08:01:25;;;;;;;12.85;6.97;;;;;;;;;;5039152;28;20082;-53
2021/01/16 08:04:02;;;;;;;13.98;7.20;;;;;;;;;;5047243;28;20095;-55
2021/01/16 08:06:41;;;;;;;12.38;6.72;;;;;;;;;;5038931;28;20025;-52
2021/01/16 08:09:12;;;;;;;13.05;7.55;;;;;;;;;;5033073;28;20085;-54
2021/01/16 08:11:42;;;;;;;11.35;6.43;;;;;;;;;;5044555;28;20757;-53
2021/01/16 08:14:09;;;;;;;10.70;6.68;;;;;;;;;;5031521;28;20025;-55
2021/01/16 08:16:35;;;;;;;12.75;7.25;;;;;;;;;;5042282;28;20025;-51
2021/01/16 08:19:27;;;;;;;12.48;6.97;;;;;;;;;;5051238;28;20640;-50
2021/01/16 08:21:53;;;;;;;10.13;6.20;;;;;;;;;;5047612;28;20037;-57
2021/01/16 08:24:20;;;;;;;16.27;7.28;;;;;;;;;;5049969;28;20064;-51
2021/01/16 08:27:02;;;;;;;12.32;6.90;;;;;;;;;;5051171;28;20033;-53
2021/01/16 08:29:29;;;;;;;14.48;7.78;;;;;;;;;;5051010;28;20029;-54
2021/01/16 08:32:11;;;;;;;14.35;7.28;;;;;;;;;;5034325;28;20043;-53
2021/01/16 08:34:54;;;;;;;11.20;6.75;;;;;;;;;;5051157;28;20056;-50
2021/01/16 08:37:39;;;;;;;12.43;7.18;;;;;;;;;;5050692;28;20045;-52
2021/01/16 08:40:07;;;;;;;12.20;7.25;;;;;;;;;;5043613;28;20026;-52
2021/01/16 08:42:34;;;;;;;15.80;7.65;;;;;;;;;;5058053;28;20086;-55
2021/01/16 08:45:01;;;;;;;12.65;7.25;;;;;;;;;;5060482;28;20276;-54
2021/01/16 08:47:27;;;;;;;11.25;6.63;;;;;;;;;;5050318;28;20551;-52
2021/01/16 08:49:53;;;;;;;13.80;7.05;;;;;;;;;;5048820;28;20029;-53
2021/01/16 08:52:32;;;;;;;12.15;6.68;;;;;;;;;;5050517;28;20487;-56
2021/01/16 08:54:59;;;;;;;13.13;6.63;;;;;;;;;;5047530;28;20055;-55
2021/01/16 08:57:35;;;;;;;12.45;7.35;;;;;;;;;;5050708;28;20035;-55
2021/01/16 09:00:14;;;;;;;14.50;7.88;;;;;;;;;;5050674;28;20630;-56
2021/01/16 09:02:41;;;;;;;14.18;7.22;;;;;;;;;;5046305;28;20049;-56
2021/01/16 09:05:23;;;;;;;12.25;6.90;;;;;;;;;;5049661;28;20103;-53
2021/01/16 09:07:49;;;;;;;11.80;6.60;;;;;;;;;;5049827;28;20029;-53
2021/01/16 09:10:21;;;;;;;17.75;7.40;;;;;;;;;;5049534;28;20529;-55
2021/01/16 09:12:47;;;;;;;8.07;4.95;;;;;;;;;;5047222;28;20036;-53
2021/01/16 09:15:17;;;;;;;14.10;6.95;;;;;;;;;;5043423;28;20017;-53
2021/01/16 09:17:55;;;;;;;12.27;6.50;;;;;;;;;;5049642;28;20051;-56
2021/01/16 09:20:24;;;;;;;11.68;6.53;;;;;;;;;;5047926;28;20029;-52
2021/01/16 09:22:50;;;;;;;12.25;6.97;;;;;;;;;;5048379;28;20037;-53
2021/01/16 09:25:23;;;;;;;11.80;6.68;;;;;;;;;;5040302;28;20032;-52
2021/01/16 09:27:50;;;;;;;12.60;7.25;;;;;;;;;;5030414;28;20547;-55
2021/01/16 09:30:22;;;;;;;16.25;7.88;;;;;;;;;;5030324;28;20030;-51
2021/01/16 09:32:49;;;;;;;13.38;7.28;;;;;;;;;;5031417;28;20037;-54
2021/01/16 09:35:33;;;;;;;12.73;6.25;;;;;;;;;;5068034;28;20119;-51
2021/01/16 09:38:00;;;;;;;15.38;7.63;;;;;;;;;;5036896;28;20041;-51
2021/01/16 09:40:34;;;;;;;13.05;6.97;;;;;;;;;;5048488;28;20052;-55
2021/01/16 09:43:00;;;;;;;10.40;6.13;;;;;;;;;;5049019;28;20028;-55
2021/01/16 09:45:45;;;;;;;13.75;7.18;;;;;;;;;;5049526;28;20419;-55
2021/01/16 09:48:32;;;;;;;15.50;7.03;;;;;;;;;;5040703;28;20033;-52
2021/01/16 09:51:02;;;;;;;13.07;7.00;;;;;;;;;;5043875;28;20083;-53
2021/01/16 09:53:29;;;;;;;11.60;6.65;;;;;;;;;;5029106;28;20040;-54
2021/01/16 09:55:55;;;;;;;11.57;7.03;;;;;;;;;;5048569;28;20033;-54
2021/01/16 09:58:29;;;;;;;12.88;6.72;;;;;;;;;;5049148;28;20577;-54
2021/01/16 10:00:55;;;;;;;10.68;6.45;;;;;;;;;;5037190;28;20029;-53
2021/01/16 10:03:34;;;;;;;16.33;8.23;;;;;;;;;;5044289;28;20430;-54
2021/01/16 10:06:06;;;;;;;11.02;6.63;;;;;;;;;;5045942;28;20025;-55
2021/01/16 10:08:33;;;;;;;12.90;6.07;;;;;;;;;;5049347;28;20078;-54
2021/01/16 10:11:00;;;;;;;10.73;6.72;;;;;;;;;;5048978;28;20625;-54
2021/01/16 10:13:30;;;;;;;12.75;7.35;;;;;;;;;;5048716;28;20033;-51
2021/01/16 10:15:58;;;;;;;10.50;6.45;;;;;;;;;;5047777;28;20068;-51
2021/01/16 10:18:26;;;;;;;14.35;6.07;;;;;;;;;;5038823;28;20025;-51
2021/01/16 10:20:59;;;;;;;16.05;7.32;;;;;;;;;;5040748;28;20049;-54
2021/01/16 10:23:27;;;;;;;13.50;6.43;;;;;;;;;;5039709;28;20114;-57
2021/01/16 10:25:59;;;;;;;11.10;6.57;;;;;;;;;;5043790;28;20033;-56
2021/01/16 10:28:32;;;;;;;9.77;5.75;;;;;;;;;;5045870;28;20033;-55
2021/01/16 10:30:59;;;;;;;10.95;6.60;;;;;;;;;;5046240;28;20033;-53
2021/01/16 10:33:27;;;;;;;16.17;9.30;;;;;;;;;;5047451;28;20039;-52
2021/01/16 10:36:04;;;;;;;14.70;9.05;;;;;;;;;;5048342;28;20086;-56
2021/01/16 10:38:40;;;;;;;15.15;7.45;;;;;;;;;;5046328;28;20554;-51
2021/01/16 10:41:07;;;;;;;13.18;6.80;;;;;;;;;;5041506;28;20575;-55
2021/01/16 10:43:34;;;;;;;12.45;6.50;;;;;;;;;;5049395;28;20028;-56
2021/01/16 10:46:10;;;;;;;11.00;6.15;;;;;;;;;;5045491;28;20447;-53
2021/01/16 10:48:40;;;;;;;10.52;6.00;;;;;;;;;;5049349;28;20024;-57
2021/01/16 10:51:10;;;;;;;11.05;5.18;;;;;;;;;;5046069;28;20043;-52
2021/01/16 10:53:40;;;;;;;9.13;5.85;;;;;;;;;;5043380;28;20404;-53
2021/01/16 10:56:15;;;;;;;10.35;6.10;;;;;;;;;;5050550;28;20090;-53
2021/01/16 10:58:44;;;;;;;35.00;24.73;;;;;;;;;;5037665;28;20021;-54
2021/01/16 11:01:10;;;;;;;11.45;6.35;;;;;;;;;;5046811;28;20074;-52
2021/01/16 11:03:36;;;;;;;10.23;5.97;;;;;;;;;;5047950;28;20089;-56
2021/01/16 11:06:13;;;;;;;12.52;6.05;;;;;;;;;;5048546;28;20368;-54
2021/01/16 11:08:39;;;;;;;10.65;5.78;;;;;;;;;;5048207;28;20432;-53
2021/01/16 11:11:25;;;;;;;9.73;6.30;;;;;;;;;;5045196;28;20029;-56
2021/01/16 11:13:51;;;;;;;10.05;5.22;;;;;;;;;;5043972;28;20068;-52
2021/01/16 11:16:20;;;;;;;8.55;4.95;;;;;;;;;;5045946;28;20032;-53
2021/01/16 11:18:46;;;;;;;11.60;6.47;;;;;;;;;;5042858;28;20029;-51
2021/01/16 11:21:20;;;;;;;11.27;6.10;;;;;;;;;;5046533;28;20029;-52
2021/01/16 11:23:46;;;;;;;7.43;4.63;;;;;;;;;;5048154;28;20029;-51
2021/01/16 11:26:12;;;;;;;9.43;5.03;;;;;;;;;;5044774;28;20024;-52
2021/01/16 11:28:52;;;;;;;12.32;6.78;;;;;;;;;;5047800;28;20029;-51
2021/01/16 11:31:28;;;;;;;11.35;5.40;;;;;;;;;;5046226;28;20044;-55
2021/01/16 11:34:03;;;;;;;9.30;5.30;;;;;;;;;;5058223;28;20040;-53
2021/01/16 11:36:29;;;;;;;8.43;5.68;;;;;;;;;;5042933;28;20051;-54
2021/01/16 11:38:55;;;;;;;10.18;5.65;;;;;;;;;;5046758;28;20033;-53
2021/01/16 11:41:51;;;;;;;11.30;5.30;;;;;;;;;;5044360;28;20081;-52
2021/01/16 11:44:17;;;;;;;10.32;6.20;;;;;;;;;;5050428;28;20407;-53
2021/01/16 11:46:43;;;;;;;11.52;6.00;;;;;;;;;;5051106;28;20033;-51
2021/01/16 11:49:09;;;;;;;9.13;5.40;;;;;;;;;;5051209;28;20021;-56
2021/01/16 11:51:35;;;;;;;9.98;5.40;;;;;;;;;;5050835;28;20025;-52
2021/01/16 11:54:01;;;;;;;12.93;5.75;;;;;;;;;;5052621;28;20029;-53
2021/01/16 11:56:28;;;;;;;10.32;5.85;;;;;;;;;;5056664;28;20028;-53
2021/01/16 11:58:54;;;;;;;18.40;10.00;;;;;;;;;;5044711;28;20640;-50
2021/01/16 12:01:20;;;;;;;11.07;6.20;;;;;;;;;;5048695;28;20033;-52
2021/01/16 12:03:46;;;;;;;11.27;5.40;;;;;;;;;;5051244;28;20083;-54
2021/01/16 12:06:13;;;;;;;10.15;5.78;;;;;;;;;;5046910;28;20112;-53
2021/01/16 12:08:42;;;;;;;14.02;5.95;;;;;;;;;;5039984;28;20120;-56
2021/01/16 12:11:08;;;;;;;9.35;5.88;;;;;;;;;;5047471;28;20021;-53
2021/01/16 12:13:34;;;;;;;10.13;5.47;;;;;;;;;;5050806;28;20451;-54
2021/01/16 12:16:00;;;;;;;10.40;6.13;;;;;;;;;;5051450;28;20032;-53
2021/01/16 12:18:27;;;;;;;8.45;5.32;;;;;;;;;;5049442;28;20175;-55
2021/01/16 12:20:53;;;;;;;8.15;5.60;;;;;;;;;;5051834;28;20039;-55
2021/01/16 12:23:21;;;;;;;8.45;4.75;;;;;;;;;;5048290;28;20068;-55
2021/01/16 12:25:51;;;;;;;7.90;5.05;;;;;;;;;;5050988;28;20021;-54
2021/01/16 12:28:23;;;;;;;11.73;5.60;;;;;;;;;;5051457;28;20032;-53
2021/01/16 12:30:49;;;;;;;7.57;5.03;;;;;;;;;;5050581;28;20153;-56
2021/01/16 12:33:22;;;;;;;8.00;5.05;;;;;;;;;;5050816;28;20056;-56
2021/01/16 12:35:48;;;;;;;8.75;4.53;;;;;;;;;;5067350;28;20032;-55
2021/01/16 12:38:14;;;;;;;8.30;4.45;;;;;;;;;;5051580;28;20491;-53
2021/01/16 12:40:40;;;;;;;7.75;4.45;;;;;;;;;;5051473;28;20044;-55
2021/01/16 12:43:12;;;;;;;6.78;4.35;;;;;;;;;;5038396;28;20444;-53
2021/01/16 12:45:38;;;;;;;9.40;4.82;;;;;;;;;;5048124;28;20098;-51
2021/01/16 12:48:05;;;;;;;7.88;4.80;;;;;;;;;;5045302;28;20044;-57
2021/01/16 12:50:31;;;;;;;10.55;4.90;;;;;;;;;;5045040;28;20130;-52
2021/01/16 12:52:57;;;;;;;8.43;4.55;;;;;;;;;;5048106;28;20041;-50
2021/01/16 12:55:27;;;;;;;7.65;4.57;;;;;;;;;;5048947;28;20029;-55
2021/01/16 12:57:54;;;;;;;8.38;4.32;;;;;;;;;;5041681;28;20117;-53
2021/01/16 13:00:23;;;;;;;6.40;3.83;;;;;;;;;;5049603;28;20423;-53
2021/01/16 13:02:55;;;;;;;7.43;4.45;;;;;;;;;;5048858;28;20033;-54
2021/01/16 13:05:24;;;;;;;6.90;4.53;;;;;;;;;;5049617;28;20049;-56
2021/01/16 13:07:50;;;;;;;8.18;5.07;;;;;;;;;;5049442;28;20035;-53
2021/01/16 13:10:17;;;;;;;8.75;4.78;;;;;;;;;;5049507;28;20025;-51
2021/01/16 13:12:44;;;;;;;8.85;5.18;;;;;;;;;;5049037;28;20064;-57
2021/01/16 13:15:10;;;;;;;8.75;5.47;;;;;;;;;;5049234;28;20029;-53
2021/01/16 13:17:40;;;;;;;10.88;5.47;;;;;;;;;;5047428;28;20855;-52
2021/01/16 13:20:07;;;;;;;7.30;4.63;;;;;;;;;;5048426;28;20360;-52
2021/01/16 13:22:34;;;;;;;9.73;5.32;;;;;;;;;;5049169;28;20036;-52
2021/01/16 13:25:04;;;;;;;9.57;5.18;;;;;;;;;;5049474;28;20032;-52
2021/01/16 13:27:31;;;;;;;9.07;5.03;;;;;;;;;;5048960;28;20129;-55
2021/01/16 13:30:01;;;;;;;8.32;4.90;;;;;;;;;;5049298;28;20071;-57
2021/01/16 13:32:28;;;;;;;12.88;5.38;;;;;;;;;;5048946;28;20013;-57
2021/01/16 13:34:55;;;;;;;7.50;4.90;;;;;;;;;;5048724;28;20044;-56
2021/01/16 13:37:23;;;;;;;9.52;5.45;;;;;;;;;;5049213;28;20020;-55
2021/01/16 13:39:50;;;;;;;9.80;5.28;;;;;;;;;;5049180;28;20067;-56
2021/01/16 13:42:23;;;;;;;9.20;5.70;;;;;;;;;;5048646;28;20021;-53
2021/01/16 13:44:53;;;;;;;10.55;6.28;;;;;;;;;;5049015;28;20032;-55
2021/01/16 13:47:20;;;;;;;9.52;5.40;;;;;;;;;;5048910;28;20507;-55
2021/01/16 13:49:45;;;;;;;9.00;5.45;;;;;;;;;;5048568;28;20074;-57
2021/01/16 13:52:11;;;;;;;9.85;5.32;;;;;;;;;;5048924;28;20519;-55
2021/01/16 13:54:39;;;;;;;10.75;5.78;;;;;;;;;;5048431;28;20396;-56
2021/01/16 13:57:16;;;;;;;10.13;6.03;;;;;;;;;;5048843;28;20032;-52
2021/01/16 13:59:53;;;;;;;8.27;5.43;;;;;;;;;;5048659;28;20555;-54
2021/01/16 14:02:19;;;;;;;9.43;5.95;;;;;;;;;;5048024;28;20128;-51
2021/01/16 14:04:46;;;;;;;9.52;5.28;;;;;;;;;;5047653;28;20049;-52
2021/01/16 14:07:22;;;;;;;11.50;5.15;;;;;;;;;;5048350;28;20037;-53
2021/01/16 14:09:48;;;;;;;8.50;5.40;;;;;;;;;;5048521;28;20025;-55
2021/01/16 14:12:15;;;;;;;11.35;5.50;;;;;;;;;;5047792;28;20376;-57
2021/01/16 14:14:41;;;;;;;8.85;5.70;;;;;;;;;;5048425;28;20472;-51
2021/01/16 14:17:10;;;;;;;9.80;5.10;;;;;;;;;;5048441;28;20033;-55
2021/01/16 14:19:36;;;;;;;8.48;4.88;;;;;;;;;;5044096;28;20029;-57
2021/01/16 14:22:02;;;;;;;9.00;4.88;;;;;;;;;;5047368;28;20104;-56
2021/01/16 14:24:28;;;;;;;10.68;5.32;;;;;;;;;;5040948;28;20031;-55
2021/01/16 14:26:59;;;;;;;8.02;4.85;;;;;;;;;;5042354;28;20026;-49
2021/01/16 14:29:25;;;;;;;9.45;5.13;;;;;;;;;;5031820;28;20034;-50
2021/01/16 14:31:51;;;;;;;9.43;4.65;;;;;;;;;;5034711;28;20033;-50
2021/01/16 14:34:17;;;;;;;7.80;4.70;;;;;;;;;;5061786;28;20032;-50
2021/01/16 14:36:43;;;;;;;10.68;5.18;;;;;;;;;;5070279;28;20116;-56
2021/01/16 14:39:10;;;;;;;8.32;5.00;;;;;;;;;;5069266;28;20040;-53
2021/01/16 14:41:43;;;;;;;7.80;4.68;;;;;;;;;;5042805;28;20069;-57
2021/01/16 14:44:13;;;;;;;11.27;4.45;;;;;;;;;;5047292;28;20047;-51
2021/01/16 14:46:39;;;;;;;6.10;4.18;;;;;;;;;;5044778;28;20104;-53
2021/01/16 14:49:09;;;;;;;9.75;5.32;;;;;;;;;;5043309;28;20033;-54